首页
METAR-TAF:

METAR-TAF

机场 :

底特律, 密歇根州, 美国

纬度: 42-14-12N, 经度: 083-31-34W, 海拔: 218米

当前天气观测

该预报发布于52分钟前的22:53 UTC
风速4节,风向东南
温度 2°C
湿度 75%
气压 1013 hPa
能見度: 16.1公里
天空无云

METAR: KYIP 132253Z 13004KT 10SM CLR 02/M02 A2991 RMK AO2 SLP133 T00221022 $

时间: 18:45 (23:45 UTC)

预报

该预报发布于25分钟前的23:20 UTC
预报有效从14日的 00点(UTC)到 14日的 24点(UTC)
风速6节,风向
能見度: 10公里
多云层高于10000英尺
从 14日的 0400点(UTC)
风速3节,风向多变
能見度: 9.7公里
阴天层高于8000英尺
从 14日的 0700点(UTC)
风速3节,风向多变
能見度: 4.8公里
多云层高于700英尺
轻雾
短暂存在
从 14日的 09点(UTC)到 14日的 13点(UTC)
能見度: 0.8公里
层高于300英尺
从 14日的 1500点(UTC)
风速5节,风向北转西北
能見度: 10公里
多云层高于1500英尺
多云层高于10000英尺
从 14日的 1800点(UTC)
风速8节,风向西转西北
能見度: 10公里
多云层高于2500英尺
阴天层高于5000英尺
从 14日的 2300点(UTC)
风速12节,风向西转西北
能見度: 10公里
散云层高于1500英尺
阴天层高于2500英尺

TAF: KYIP 132320Z 1400/1424 17006KT P6SM BKN100 FM140400 VRB03KT 6SM HZ OVC080 FM140700 VRB03KT 3SM BR BKN007 TEMPO 1409/1413 1/2SM FG VV003 FM141500 33005KT P6SM BKN015 BKN100 FM141800 30008KT P6SM BKN025 OVC050 FM142300 29012KT P6SM SCT015 OVC025

超过4000个机场的气象观测和天气预报(METAR&TAF报告)。

可查询的气象台以黄色和红色小点在地图上表示。

将鼠标移到小点上方,可查看气象台名称。

然后点击查看天气观测和预报。

如需切换地图:点击带黑十字的绿色按钮放大地图;点击带横线的绿色按钮缩小地图;或者点击绿色箭头查看邻近地区的地图。


METAR-TAF: